This is the latest recevied weather packets stored in our database for station/object F5PQL-4. If no packets are shown the sender has not sent any weather packets the latest 10 day(s).
| Time | Temp. | Humidity | Pressure | Rain* | Wind** | Luminosity | Snow |
|---|---|---|---|---|---|---|---|
| 1777458083 | 38.33° C | 37% | 1016.2 hPa | - | - | - | - |
| 1777457183 | 36.11° C | 39% | 1016.3 hPa | - | - | - | - |
| 1777456283 | 29.44° C | 50% | 1016.6 hPa | - | - | - | - |
| 1777455382 | 30.56° C | 49% | 1016.6 hPa | - | - | - | - |
| 1777454482 | 32.78° C | 47% | 1016.7 hPa | - | - | - | - |
| 1777453582 | 30° C | 51% | 1016.8 hPa | - | - | - | - |
| 1777452682 | 30° C | 51% | 1016.7 hPa | - | - | - | - |
| 1777451782 | 27.78° C | 59% | 1016.7 hPa | - | - | - | - |
| 1777450882 | 26.67° C | 61% | 1016.7 hPa | - | - | - | - |
| 1777449982 | 24.44° C | 65% | 1016.5 hPa | - | - | - | - |
| 1777449082 | 21.67° C | 71% | 1016.6 hPa | - | - | - | - |
| 1777448182 | 22.22° C | 72% | 1016.7 hPa | - | - | - | - |
| 1777447281 | 21.11° C | 73% | 1016.7 hPa | - | - | - | - |
| 1777446382 | 19.44° C | 75% | 1016.6 hPa | - | - | - | - |
| 1777445481 | 18.89° C | 76% | 1016.4 hPa | - | - | - | - |
| 1777444581 | 18.33° C | 77% | 1016.4 hPa | - | - | - | - |
| 1777443681 | 18.33° C | 78% | 1016.3 hPa | - | - | - | - |
| 1777442789 | 17.78° C | 79% | 1016.2 hPa | - | - | - | - |
| 1777441889 | 16.67° C | 79% | 1016.1 hPa | - | - | - | - |
| 1777440989 | 17.22° C | 79% | 1016.2 hPa | - | - | - | - |
| 1777440088 | 16.67° C | 80% | 1016 hPa | - | - | - | - |
| 1777439188 | 16.67° C | 80% | 1015.9 hPa | - | - | - | - |
| 1777438287 | 15.56° C | 81% | 1016 hPa | - | - | - | - |
| 1777437387 | 15.56° C | 81% | 1015.8 hPa | - | - | - | - |
| 1777436487 | 15.56° C | 81% | 1015.7 hPa | - | - | - | - |
* Rain since midnight (hover to see other rain measurements)
** Current wind speed in m/s (hover to see current wind gust speed)